createdAt,value
2017-12-31T00:01:18.892Z,94712.41
2017-12-31T00:03:46.482Z,94711.31
2017-12-31T00:06:14.067Z,94703.76
2017-12-31T00:08:41.584Z,94708.96
2017-12-31T00:11:09.101Z,94709.45
2017-12-31T00:13:36.680Z,94713.27
2017-12-31T00:16:04.264Z,94717.52
2017-12-31T00:18:31.843Z,94708.58
2017-12-31T00:20:59.397Z,94711.55
2017-12-31T00:23:26.949Z,94709.82
2017-12-31T00:25:54.477Z,94716.92
2017-12-31T00:28:22.025Z,94722.86
2017-12-31T00:30:49.607Z,94725.34
2017-12-31T00:33:17.135Z,94737.23
2017-12-31T00:35:44.690Z,94744.79
2017-12-31T00:38:12.276Z,94739.23
2017-12-31T00:40:39.795Z,94740.06
2017-12-31T00:43:07.404Z,94730.17
2017-12-31T00:45:34.922Z,94735.17
2017-12-31T00:48:02.442Z,94739.79
2017-12-31T00:50:29.990Z,94730.30
2017-12-31T00:52:57.547Z,94732.76
2017-12-31T00:55:25.072Z,94736.03
2017-12-31T00:57:52.614Z,94727.92
2017-12-31T01:00:20.170Z,94731.23
2017-12-31T01:02:47.800Z,94731.23
2017-12-31T01:05:15.356Z,94729.52
2017-12-31T01:07:42.936Z,94724.92
2017-12-31T01:10:10.494Z,94732.76
2017-12-31T01:12:38.050Z,94738.20
2017-12-31T01:15:05.562Z,94739.61
2017-12-31T01:17:33.099Z,94737.09
2017-12-31T01:20:00.651Z,94740.48
2017-12-31T01:22:28.215Z,94748.45
2017-12-31T01:24:55.805Z,94738.52
2017-12-31T01:27:23.359Z,94725.20
2017-12-31T01:29:50.945Z,94736.09
2017-12-31T01:32:18.466Z,94737.62
2017-12-31T01:34:46.086Z,94734.93
2017-12-31T01:37:13.608Z,94726.37
2017-12-31T01:39:41.159Z,94714.85
2017-12-31T01:42:08.714Z,94722.03
2017-12-31T01:44:36.268Z,94714.34
2017-12-31T01:47:03.824Z,94701.95
2017-12-31T01:49:31.343Z,94699.54
2017-12-31T01:51:58.928Z,94703.68
2017-12-31T01:54:26.479Z,94703.58
2017-12-31T01:56:53.994Z,94706.13
2017-12-31T01:59:21.506Z,94715.06
2017-12-31T02:01:49.087Z,94716.72
2017-12-31T02:04:16.672Z,94723.58
2017-12-31T02:06:44.196Z,94713.16
2017-12-31T02:09:11.742Z,94715.55
2017-12-31T02:11:39.258Z,94725.17
2017-12-31T02:14:06.811Z,94725.89
2017-12-31T02:16:34.363Z,94733.38
2017-12-31T02:19:01.893Z,94743.30
2017-12-31T02:21:29.419Z,94747.30
2017-12-31T02:23:56.999Z,94741.06
2017-12-31T02:26:24.559Z,94749.64
2017-12-31T02:28:52.144Z,94742.87
2017-12-31T02:31:19.723Z,94745.02
2017-12-31T02:33:47.242Z,94750.91
2017-12-31T02:36:14.828Z,94750.47
2017-12-31T02:38:42.379Z,94747.84
2017-12-31T02:41:09.908Z,94744.81
2017-12-31T02:43:37.511Z,94741.30
2017-12-31T02:46:05.075Z,94742.47
2017-12-31T02:48:32.605Z,94737.20
2017-12-31T02:51:00.127Z,94725.10
2017-12-31T02:53:27.682Z,94713.96
2017-12-31T02:55:55.213Z,94713.45
2017-12-31T02:58:22.772Z,94706.09
2017-12-31T03:00:50.320Z,94707.75
2017-12-31T03:03:17.886Z,94707.75
2017-12-31T03:05:45.412Z,94712.80
2017-12-31T03:08:13.030Z,94715.34
2017-12-31T03:10:40.584Z,94717.86
2017-12-31T03:13:08.110Z,94728.92
2017-12-31T03:15:35.667Z,94722.10
2017-12-31T03:18:03.191Z,94728.10
2017-12-31T03:20:30.779Z,94733.89
2017-12-31T03:22:58.326Z,94731.34
2017-12-31T03:25:25.847Z,94732.13
2017-12-31T03:27:53.433Z,94728.69
2017-12-31T03:30:21.057Z,94735.48
2017-12-31T03:32:48.619Z,94738.00
2017-12-31T03:35:16.140Z,94735.86
2017-12-31T03:37:43.756Z,94732.89
2017-12-31T03:40:11.313Z,94733.72
2017-12-31T03:42:38.831Z,94742.66
2017-12-31T03:45:06.448Z,94746.10
2017-12-31T03:47:34.033Z,94766.93
2017-12-31T03:50:01.552Z,94777.97
2017-12-31T03:52:29.212Z,94778.83
2017-12-31T03:54:56.769Z,94774.03
2017-12-31T03:57:24.351Z,94770.66
2017-12-31T03:59:51.902Z,94765.10
2017-12-31T04:02:19.485Z,94756.58
2017-12-31T04:04:47.007Z,94760.00
2017-12-31T04:07:14.558Z,94763.52
2017-12-31T04:09:42.140Z,94765.10
2017-12-31T04:12:09.662Z,94768.03
2017-12-31T04:14:37.231Z,94766.83
2017-12-31T04:17:04.805Z,94768.20
2017-12-31T04:19:32.326Z,94772.23
2017-12-31T04:21:59.948Z,94768.62
2017-12-31T04:24:27.539Z,94767.61
2017-12-31T04:26:55.062Z,94777.41
2017-12-31T04:29:22.625Z,94783.47
2017-12-31T04:31:50.151Z,94782.75
2017-12-31T04:34:17.670Z,94791.67
2017-12-31T04:36:45.220Z,94791.36
2017-12-31T04:39:12.734Z,94788.84
2017-12-31T04:41:40.258Z,94795.22
2017-12-31T04:44:07.843Z,94790.12
2017-12-31T04:46:35.362Z,94793.53
2017-12-31T04:49:02.922Z,94794.33
2017-12-31T04:51:30.543Z,94787.50
2017-12-31T04:53:58.095Z,94783.61
2017-12-31T04:56:25.615Z,94785.36
2017-12-31T04:58:53.176Z,94789.44
2017-12-31T05:01:20.694Z,94793.64
2017-12-31T05:03:48.210Z,94793.95
2017-12-31T05:06:15.824Z,94797.75
2017-12-31T05:08:43.383Z,94804.45
2017-12-31T05:11:10.937Z,94805.34
2017-12-31T05:13:38.562Z,94812.02
2017-12-31T05:16:06.082Z,94814.70
2017-12-31T05:18:33.607Z,94808.59
2017-12-31T05:21:01.196Z,94807.62
2017-12-31T05:23:28.714Z,94804.09
2017-12-31T05:25:56.239Z,94803.36
2017-12-31T05:28:23.790Z,94807.67
2017-12-31T05:30:51.312Z,94812.04
2017-12-31T05:33:18.863Z,94815.45
2017-12-31T05:35:46.414Z,94818.58
2017-12-31T05:38:13.963Z,94821.30
2017-12-31T05:40:41.519Z,94829.46
2017-12-31T05:43:09.069Z,94819.61
2017-12-31T05:45:36.655Z,94825.41
2017-12-31T05:48:04.170Z,94830.69
2017-12-31T05:50:31.788Z,94829.66
2017-12-31T05:52:59.360Z,94833.64
2017-12-31T05:55:26.915Z,94835.13
2017-12-31T05:57:54.503Z,94832.03
2017-12-31T06:00:22.024Z,94832.55
2017-12-31T06:02:49.845Z,94819.55
2017-12-31T06:05:17.402Z,94812.09
2017-12-31T06:07:45.160Z,94814.50
2017-12-31T06:10:12.682Z,94816.00
2017-12-31T06:12:40.295Z,94811.92
2017-12-31T06:15:07.879Z,94810.43
2017-12-31T06:17:35.434Z,94812.70
2017-12-31T06:20:03.060Z,94816.53
2017-12-31T06:22:30.581Z,94816.53
2017-12-31T06:24:58.102Z,94818.08
2017-12-31T06:27:25.687Z,94814.61
2017-12-31T06:29:53.210Z,94816.03
2017-12-31T06:32:20.726Z,94818.05
2017-12-31T06:34:48.274Z,94827.00
2017-12-31T06:37:15.862Z,94836.77
2017-12-31T06:39:43.415Z,94839.89
2017-12-31T06:42:10.962Z,94841.55
2017-12-31T06:44:38.544Z,94853.78
2017-12-31T06:47:06.158Z,94859.95
2017-12-31T06:49:33.678Z,94871.50
2017-12-31T06:52:01.398Z,94868.31
2017-12-31T06:54:29.028Z,94873.42
2017-12-31T06:56:56.612Z,94879.83
2017-12-31T06:59:24.135Z,94880.63
2017-12-31T07:01:51.684Z,94887.42
2017-12-31T07:04:19.198Z,94887.22
2017-12-31T07:06:46.753Z,94876.75
2017-12-31T07:09:14.384Z,94874.66
2017-12-31T07:11:41.902Z,94874.13
2017-12-31T07:14:09.419Z,94878.70
2017-12-31T07:16:36.974Z,94882.16
2017-12-31T07:19:04.498Z,94900.31
2017-12-31T07:21:32.018Z,94902.70
2017-12-31T07:23:59.790Z,94908.39
2017-12-31T07:26:27.318Z,94916.99
2017-12-31T07:28:54.874Z,94918.27
2017-12-31T07:31:22.488Z,94918.16
2017-12-31T07:33:50.019Z,94919.26
2017-12-31T07:36:17.609Z,94930.78
2017-12-31T07:38:45.163Z,94935.50
2017-12-31T07:41:12.679Z,94946.52
2017-12-31T07:43:40.261Z,94944.34
2017-12-31T07:46:07.845Z,94938.55
2017-12-31T07:48:35.407Z,94935.00
2017-12-31T07:51:02.935Z,94926.86
2017-12-31T07:53:30.563Z,94922.09
2017-12-31T07:55:58.148Z,94915.30
2017-12-31T07:58:25.666Z,94904.57
2017-12-31T08:00:53.218Z,94900.84
2017-12-31T08:03:20.805Z,94892.22
2017-12-31T08:05:48.334Z,94896.19
2017-12-31T08:08:15.911Z,94899.19
2017-12-31T08:10:43.500Z,94906.36
2017-12-31T08:13:11.024Z,94904.43
2017-12-31T08:15:38.591Z,94912.47
2017-12-31T08:18:06.124Z,94916.98
2017-12-31T08:20:33.647Z,94920.08
2017-12-31T08:23:01.212Z,94925.92
2017-12-31T08:25:28.777Z,94934.06
2017-12-31T08:27:56.494Z,94951.73
2017-12-31T08:30:24.070Z,94952.36
2017-12-31T08:32:51.643Z,94949.95
2017-12-31T08:35:19.228Z,94947.58
2017-12-31T08:37:46.839Z,94948.31
2017-12-31T08:40:14.428Z,94948.69
2017-12-31T08:42:41.994Z,94938.09
2017-12-31T08:45:09.546Z,94938.41
2017-12-31T08:47:37.114Z,94942.17
2017-12-31T08:50:04.644Z,94942.34
2017-12-31T08:52:32.198Z,94957.14
2017-12-31T08:54:59.724Z,94959.95
2017-12-31T08:57:27.317Z,94956.74
2017-12-31T08:59:54.875Z,94967.34
2017-12-31T09:02:22.396Z,94965.06
2017-12-31T09:04:49.916Z,94965.48
2017-12-31T09:07:17.543Z,94952.84
2017-12-31T09:09:45.082Z,94948.97
2017-12-31T09:12:12.615Z,94949.48
2017-12-31T09:14:40.212Z,94962.13
2017-12-31T09:17:07.828Z,94948.55
2017-12-31T09:19:35.358Z,94948.69
2017-12-31T09:22:02.964Z,94941.16
2017-12-31T09:24:30.558Z,94940.98
2017-12-31T09:26:58.144Z,94925.37
2017-12-31T09:29:25.729Z,94927.55
2017-12-31T09:31:53.258Z,94922.17
2017-12-31T09:34:20.828Z,94921.85
2017-12-31T09:36:48.423Z,94920.64
2017-12-31T09:39:15.955Z,94923.52
2017-12-31T09:41:43.552Z,94918.27
2017-12-31T09:44:11.107Z,94902.02
2017-12-31T09:46:38.630Z,94908.58
2017-12-31T09:49:06.194Z,94890.22
2017-12-31T09:51:33.788Z,94909.82
2017-12-31T09:54:01.326Z,94907.13
2017-12-31T09:56:28.843Z,94891.67
2017-12-31T09:58:56.425Z,94888.98
2017-12-31T10:01:23.946Z,94892.27
2017-12-31T10:03:51.466Z,94880.80
2017-12-31T10:06:19.058Z,94873.10
2017-12-31T10:08:46.616Z,94867.62
2017-12-31T10:11:14.134Z,94863.44
2017-12-31T10:13:41.732Z,94865.78
2017-12-31T10:16:09.265Z,94864.99
2017-12-31T10:18:36.859Z,94876.83
2017-12-31T10:21:04.387Z,94873.41
2017-12-31T10:23:31.972Z,94867.34
2017-12-31T10:25:59.498Z,94868.95
2017-12-31T10:28:27.093Z,94869.72
2017-12-31T10:30:54.648Z,94867.75
2017-12-31T10:33:22.174Z,94860.16
2017-12-31T10:35:49.731Z,94858.95
2017-12-31T10:38:17.291Z,94856.39
2017-12-31T10:40:44.816Z,94848.32
2017-12-31T10:43:12.346Z,94844.45
2017-12-31T10:45:39.877Z,94831.72
2017-12-31T10:48:07.440Z,94830.03
2017-12-31T10:50:35.020Z,94827.47
2017-12-31T10:53:02.581Z,94829.64
2017-12-31T10:55:30.103Z,94832.58
2017-12-31T10:57:57.707Z,94834.75
2017-12-31T11:00:25.328Z,94839.38
2017-12-31T11:02:52.947Z,94838.72
2017-12-31T11:05:20.467Z,94828.09
2017-12-31T11:07:47.998Z,94824.16
2017-12-31T11:10:15.550Z,94822.84
2017-12-31T11:12:44.007Z,94826.58
2017-12-31T11:15:11.588Z,94821.78
2017-12-31T11:17:39.146Z,94821.70
2017-12-31T11:20:06.678Z,94818.18
2017-12-31T11:22:34.235Z,94809.28
2017-12-31T11:25:01.752Z,94808.93
2017-12-31T11:27:29.278Z,94807.17
2017-12-31T11:29:56.870Z,94798.23
2017-12-31T11:32:24.422Z,94789.70
2017-12-31T11:34:51.982Z,94779.00
2017-12-31T11:37:19.498Z,94773.37
2017-12-31T11:39:47.026Z,94766.23
2017-12-31T11:42:14.565Z,94767.58
2017-12-31T11:44:42.094Z,94760.54
2017-12-31T11:47:09.721Z,94757.09
2017-12-31T11:49:37.244Z,94755.36
2017-12-31T11:52:04.780Z,94749.75
2017-12-31T11:54:32.305Z,94748.40
2017-12-31T11:56:59.837Z,94745.50
2017-12-31T11:59:27.358Z,94746.95
2017-12-31T12:01:54.892Z,94744.30
2017-12-31T12:04:22.451Z,94734.34
2017-12-31T12:06:50.040Z,94731.34
2017-12-31T12:09:17.632Z,94740.14
2017-12-31T12:11:45.225Z,94747.36
2017-12-31T12:14:12.778Z,94745.56
2017-12-31T12:16:40.327Z,94753.59
2017-12-31T12:19:07.876Z,94743.38
2017-12-31T12:21:35.394Z,94748.91
2017-12-31T12:24:02.967Z,94746.28
2017-12-31T12:26:30.608Z,94744.52
2017-12-31T12:28:58.234Z,94737.50
2017-12-31T12:31:25.875Z,94728.63
2017-12-31T12:33:53.404Z,94719.63
2017-12-31T12:36:20.927Z,94718.47
2017-12-31T12:38:48.476Z,94724.05
2017-12-31T12:41:16.040Z,94731.41
2017-12-31T12:43:43.562Z,94726.96
2017-12-31T12:46:11.096Z,94724.37
2017-12-31T12:48:38.674Z,94723.39
2017-12-31T12:51:06.253Z,94716.90
2017-12-31T12:53:33.790Z,94718.89
2017-12-31T12:56:01.363Z,94724.09
2017-12-31T12:58:28.953Z,94723.73
2017-12-31T13:00:56.487Z,94721.06
2017-12-31T13:03:24.030Z,94714.34
2017-12-31T13:05:51.562Z,94721.13
2017-12-31T13:08:19.094Z,94728.34
2017-12-31T13:10:46.623Z,94730.83
2017-12-31T13:13:14.246Z,94734.27
2017-12-31T13:15:41.840Z,94721.27
2017-12-31T13:18:09.435Z,94727.38
2017-12-31T13:20:37.031Z,94716.94
2017-12-31T13:23:04.625Z,94727.55
2017-12-31T13:25:32.166Z,94739.45
2017-12-31T13:27:59.770Z,94735.15
2017-12-31T13:30:27.310Z,94732.37
2017-12-31T13:32:54.878Z,94744.17
2017-12-31T13:35:22.474Z,94744.23
2017-12-31T13:37:50.041Z,94745.59
2017-12-31T13:40:17.599Z,94748.07
2017-12-31T13:42:45.204Z,94745.73
2017-12-31T13:45:12.768Z,94746.98
2017-12-31T13:47:40.339Z,94738.78
2017-12-31T13:50:07.868Z,94740.06
2017-12-31T13:52:35.422Z,94737.38
2017-12-31T13:55:02.959Z,94733.59
2017-12-31T13:57:30.528Z,94730.59
2017-12-31T13:59:58.084Z,94721.95
2017-12-31T14:02:25.613Z,94727.36
2017-12-31T14:04:53.191Z,94726.40
2017-12-31T14:07:20.695Z,94725.41
2017-12-31T14:09:48.317Z,94724.45
2017-12-31T14:12:15.846Z,94731.92
2017-12-31T14:14:43.370Z,94727.14
2017-12-31T14:17:10.932Z,94732.23
2017-12-31T14:19:38.456Z,94726.52
2017-12-31T14:22:06.039Z,94730.21
2017-12-31T14:24:33.599Z,94722.56
2017-12-31T14:27:01.132Z,94727.22
2017-12-31T14:29:28.694Z,94733.17
2017-12-31T14:31:56.299Z,94730.94
2017-12-31T14:34:23.826Z,94736.42
2017-12-31T14:36:51.404Z,94735.45
2017-12-31T14:39:18.996Z,94738.70
2017-12-31T14:41:46.526Z,94745.42
2017-12-31T14:44:14.122Z,94748.77
2017-12-31T14:46:41.663Z,94745.42
2017-12-31T14:49:09.263Z,94745.91
2017-12-31T14:51:36.869Z,94748.08
2017-12-31T14:54:04.435Z,94753.00
2017-12-31T14:56:32.030Z,94756.17
2017-12-31T14:58:59.604Z,94752.70
2017-12-31T15:01:27.216Z,94745.16
2017-12-31T15:03:54.746Z,94742.13
2017-12-31T15:06:22.300Z,94746.23
2017-12-31T15:08:49.912Z,94751.54
2017-12-31T15:11:17.439Z,94750.02
2017-12-31T15:13:45.056Z,94758.69
2017-12-31T15:16:12.632Z,94750.41
2017-12-31T15:18:40.163Z,94760.89
2017-12-31T15:21:07.692Z,94757.31
2017-12-31T15:23:35.260Z,94762.69
2017-12-31T15:26:02.832Z,94762.20
2017-12-31T15:28:30.369Z,94753.86
2017-12-31T15:30:57.979Z,94750.69
2017-12-31T15:33:25.519Z,94753.11
2017-12-31T15:35:53.103Z,94751.55
2017-12-31T15:38:20.634Z,94755.17
2017-12-31T15:40:48.228Z,94762.62
2017-12-31T15:43:15.784Z,94755.27
2017-12-31T15:45:43.377Z,94756.92
2017-12-31T15:48:10.912Z,94761.62
2017-12-31T15:50:38.503Z,94762.00
2017-12-31T15:53:06.062Z,94758.52
2017-12-31T15:55:33.600Z,94763.66
2017-12-31T15:58:01.126Z,94758.96
2017-12-31T16:00:28.661Z,94757.69
2017-12-31T16:02:56.259Z,94759.38
2017-12-31T16:05:23.847Z,94765.03
2017-12-31T16:07:51.458Z,94777.31
2017-12-31T16:10:19.055Z,94763.27
2017-12-31T16:12:46.617Z,94759.64
2017-12-31T16:15:14.186Z,94767.20
2017-12-31T16:17:41.740Z,94765.02
2017-12-31T16:20:09.270Z,94767.20
2017-12-31T16:25:29.941Z,94758.98
2017-12-31T16:27:57.531Z,94752.47
2017-12-31T16:30:25.067Z,94754.19
2017-12-31T16:32:52.594Z,94755.88
2017-12-31T16:35:20.209Z,94760.13
2017-12-31T16:37:47.750Z,94749.87
2017-12-31T16:40:15.274Z,94752.36
2017-12-31T16:42:42.830Z,94758.81
2017-12-31T16:45:10.433Z,94758.09
2017-12-31T16:47:38.039Z,94772.48
2017-12-31T16:50:05.649Z,94769.98
2017-12-31T16:52:33.200Z,94770.75
2017-12-31T16:55:00.728Z,94770.64
2017-12-31T16:57:28.321Z,94778.30
2017-12-31T16:59:55.948Z,94769.02
2017-12-31T17:02:23.740Z,94769.47
2017-12-31T17:04:51.286Z,94779.69
2017-12-31T17:07:18.889Z,94779.27
2017-12-31T17:09:46.432Z,94774.58
2017-12-31T17:12:13.975Z,94783.00
2017-12-31T17:14:41.603Z,94779.79
2017-12-31T17:17:09.245Z,94770.52
2017-12-31T17:19:36.853Z,94765.95
2017-12-31T17:22:04.452Z,94764.23
2017-12-31T17:24:31.978Z,94770.99
2017-12-31T17:26:59.510Z,94766.38
2017-12-31T17:29:27.077Z,94765.41
2017-12-31T17:31:54.692Z,94767.92
2017-12-31T17:34:22.222Z,94760.23
2017-12-31T17:36:49.836Z,94763.23
2017-12-31T17:39:17.436Z,94775.13
2017-12-31T17:41:44.962Z,94772.55
2017-12-31T17:44:12.492Z,94767.44
2017-12-31T17:46:40.092Z,94766.65
2017-12-31T17:49:07.728Z,94769.89
2017-12-31T17:51:35.328Z,94772.34
2017-12-31T17:54:02.928Z,94773.47
2017-12-31T17:56:30.512Z,94764.77
2017-12-31T17:58:58.116Z,94768.91
2017-12-31T18:01:25.743Z,94775.64
2017-12-31T18:03:53.342Z,94779.84
2017-12-31T18:06:20.895Z,94776.16
2017-12-31T18:08:48.427Z,94786.09
2017-12-31T18:11:15.955Z,94800.73
2017-12-31T18:13:43.498Z,94792.97
2017-12-31T18:16:11.026Z,94798.59
2017-12-31T18:18:38.633Z,94803.46
2017-12-31T18:21:06.234Z,94795.73
2017-12-31T18:23:33.764Z,94802.98
2017-12-31T18:26:01.291Z,94798.73
2017-12-31T18:28:28.859Z,94811.92
2017-12-31T18:30:56.401Z,94816.27
2017-12-31T18:33:24.008Z,94812.13
2017-12-31T18:35:51.583Z,94814.33
2017-12-31T18:38:19.141Z,94813.67
2017-12-31T18:40:46.691Z,94818.44
2017-12-31T18:43:14.256Z,94811.67
2017-12-31T18:45:41.848Z,94813.92
2017-12-31T18:48:09.465Z,94806.67
2017-12-31T18:50:37.088Z,94806.70
2017-12-31T18:53:04.610Z,94807.22
2017-12-31T18:55:32.209Z,94802.53
2017-12-31T18:57:59.805Z,94804.61
2017-12-31T19:00:27.327Z,94802.39
2017-12-31T19:02:54.856Z,94801.47
2017-12-31T19:05:22.391Z,94806.53
2017-12-31T19:07:50.034Z,94804.16
2017-12-31T19:10:17.741Z,94802.74
2017-12-31T19:12:45.364Z,94794.91
2017-12-31T19:15:12.977Z,94796.52
2017-12-31T19:17:40.588Z,94801.91
2017-12-31T19:20:08.150Z,94799.70
2017-12-31T19:22:35.674Z,94804.70
2017-12-31T19:25:03.279Z,94807.60
2017-12-31T19:27:30.810Z,94799.84
2017-12-31T19:29:58.335Z,94795.77
2017-12-31T19:32:25.938Z,94795.59
2017-12-31T19:34:53.529Z,94797.63
2017-12-31T19:37:21.151Z,94788.13
2017-12-31T19:39:48.784Z,94792.79
2017-12-31T19:42:16.319Z,94796.17
2017-12-31T19:44:43.958Z,94793.06
2017-12-31T19:47:11.494Z,94801.59
2017-12-31T19:49:39.018Z,94802.45
2017-12-31T19:52:06.550Z,94809.21
2017-12-31T19:54:34.128Z,94811.05
2017-12-31T19:57:01.735Z,94813.63
2017-12-31T19:59:29.344Z,94795.80
2017-12-31T20:01:56.878Z,94803.45
2017-12-31T20:04:24.423Z,94799.09
2017-12-31T20:06:52.029Z,94801.59
2017-12-31T20:09:19.573Z,94799.17
2017-12-31T20:11:47.111Z,94796.06
2017-12-31T20:14:14.765Z,94796.23
2017-12-31T20:16:42.384Z,94814.08
2017-12-31T20:19:09.913Z,94812.53
2017-12-31T20:21:37.475Z,94813.22
2017-12-31T20:24:05.012Z,94809.60
2017-12-31T20:26:32.543Z,94806.64
2017-12-31T20:29:00.086Z,94815.30
2017-12-31T20:31:27.618Z,94817.89
2017-12-31T20:33:55.467Z,94812.53
2017-12-31T20:36:23.002Z,94823.56
2017-12-31T20:38:50.624Z,94810.41
2017-12-31T20:41:18.146Z,94807.55
2017-12-31T20:43:45.741Z,94813.88
2017-12-31T20:46:13.266Z,94819.80
2017-12-31T20:48:40.872Z,94814.16
2017-12-31T20:51:08.407Z,94823.77
2017-12-31T20:53:35.948Z,94815.48
2017-12-31T20:56:03.576Z,94816.89
2017-12-31T20:58:31.107Z,94814.06
2017-12-31T21:00:58.704Z,94812.13
2017-12-31T21:03:26.305Z,94813.02
2017-12-31T21:05:53.835Z,94812.73
2017-12-31T21:08:21.428Z,94811.91
2017-12-31T21:10:49.024Z,94814.66
2017-12-31T21:13:16.581Z,94805.41
2017-12-31T21:15:44.114Z,94804.20
2017-12-31T21:18:11.715Z,94808.95
2017-12-31T21:20:39.303Z,94801.34
2017-12-31T21:23:06.830Z,94804.84
2017-12-31T21:25:34.351Z,94808.35
2017-12-31T21:28:01.874Z,94804.63
2017-12-31T21:30:29.398Z,94805.97
2017-12-31T21:32:56.925Z,94815.40
2017-12-31T21:35:24.532Z,94811.67
2017-12-31T21:37:52.133Z,94812.13
2017-12-31T21:40:19.687Z,94813.02
2017-12-31T21:42:47.226Z,94814.38
2017-12-31T21:45:14.833Z,94808.45
2017-12-31T21:47:42.429Z,94813.14
2017-12-31T21:50:09.975Z,94811.55
2017-12-31T21:52:37.561Z,94812.41
2017-12-31T21:55:05.089Z,94807.79
2017-12-31T21:57:32.650Z,94817.64
2017-12-31T22:00:00.245Z,94807.86
2017-12-31T22:02:27.770Z,94805.84
2017-12-31T22:04:55.364Z,94804.13
2017-12-31T22:07:22.896Z,94797.38
2017-12-31T22:09:50.426Z,94801.67
2017-12-31T22:12:17.964Z,94799.92
2017-12-31T22:14:45.528Z,94796.52
2017-12-31T22:17:13.055Z,94793.97
2017-12-31T22:19:40.648Z,94788.07
2017-12-31T22:22:08.175Z,94800.44
2017-12-31T22:24:35.707Z,94795.37
2017-12-31T22:27:03.305Z,94793.36
2017-12-31T22:29:30.827Z,94790.05
2017-12-31T22:31:58.444Z,94794.77
2017-12-31T22:34:25.971Z,94799.09
2017-12-31T22:36:53.505Z,94799.09
2017-12-31T22:39:21.031Z,94793.62
2017-12-31T22:41:48.570Z,94796.64
2017-12-31T22:44:16.191Z,94794.09
2017-12-31T22:46:43.716Z,94796.23
2017-12-31T22:49:11.234Z,94798.36
2017-12-31T22:51:38.826Z,94790.75
2017-12-31T22:54:06.342Z,94797.19
2017-12-31T22:56:33.955Z,94796.30
2017-12-31T22:59:01.552Z,94793.36
2017-12-31T23:01:29.111Z,94797.63
2017-12-31T23:03:56.639Z,94791.27
2017-12-31T23:06:24.239Z,94794.22
2017-12-31T23:08:51.840Z,94794.22
2017-12-31T23:11:19.429Z,94787.85
2017-12-31T23:13:46.964Z,94792.54
2017-12-31T23:16:14.486Z,94793.40
2017-12-31T23:18:42.121Z,94796.36
2017-12-31T23:21:09.655Z,94794.70
2017-12-31T23:23:37.187Z,94791.39
2017-12-31T23:26:04.779Z,94787.19
2017-12-31T23:28:32.364Z,94785.15
2017-12-31T23:30:59.896Z,94781.77
2017-12-31T23:33:27.497Z,94782.09
2017-12-31T23:35:55.117Z,94782.41
2017-12-31T23:38:22.643Z,94773.74
2017-12-31T23:40:50.191Z,94778.86
2017-12-31T23:43:17.780Z,94767.99
2017-12-31T23:45:45.379Z,94764.52
2017-12-31T23:48:12.969Z,94757.13
2017-12-31T23:50:40.490Z,94758.58
2017-12-31T23:53:08.081Z,94760.55
2017-12-31T23:55:35.677Z,94753.12
2017-12-31T23:58:03.215Z,94752.71
